Latest Weather Observations for Douglas River

IDD60801

Issued at 6:21 am CST Friday 30 October 2020 (issued every 10 minutes, with the page automatically refreshed every 10 minutes)

About weather observations | Map of weather stations | Latest weather observations for NT | Other Formats
Station Details ID: 014901 Name: DOUGLAS RIVER RESEARCH FARM Lat: -13.83 Lon: 131.19 Height: 42.8 m
Data from the previous 72 hours. | See also: Recent months at Douglas River
Date/Time
CST
Temp
°C
App
Temp
°C
Dew
Point
°C
Rel
Hum
%
Delta-T
°C
Wind Press
QNH
hPa
Press
MSL
hPa
Rain since
9am
mm
Dir  Spd
km/h
Gust
km/h
Spd
kts
Gust
kts
30/06:00am 24.3 29.4 22.6 90 1.1 CALM 0 0 0 0 1011.3 1011.0 0.0
30/05:30am 25.1 30.4 23.0 88 1.4 CALM 0 0 0 0 1011.1 1010.8 0.0
30/05:00am 25.1 30.3 22.8 87 1.6 CALM 0 0 0 0 1010.7 1010.4 0.0
30/04:30am 25.9 30.0 23.2 85 1.8 NNW 7 11 4 6 1010.4 1010.1 0.0
30/04:00am 25.7 29.8 23.2 86 1.7 N 7 11 4 6 1010.4 1010.1 0.0
30/03:30am 25.7 29.5 22.8 84 2.0 NNW 7 11 4 6 1010.4 1010.1 0.0
30/03:00am 25.8 29.1 22.5 82 2.2 N 9 13 5 7 1010.5 1010.2 0.0
30/02:30am 26.1 29.8 22.6 81 2.4 N 7 13 4 7 1010.7 1010.4 0.0
30/02:00am 25.6 29.2 22.3 82 2.2 N 7 15 4 8 1010.9 1010.6 0.0
30/01:30am 25.6 28.7 22.1 81 2.3 NNW 9 11 5 6 1010.9 1010.6 0.0
30/01:00am 25.5 29.3 22.4 83 2.1 N 6 9 3 5 1011.1 1010.8 0.0
30/12:30am 25.8 30.8 22.5 82 2.2 CALM 0 6 0 3 1011.0 1010.7 0.0
30/12:00am 26.7 30.6 22.5 78 2.8 NNW 6 9 3 5 1011.3 1011.0 0.0
 
Date/Time
CST
Temp
°C
App
Temp
°C
Dew
Point
°C
Rel
Hum
%
Delta-T
°C
Wind Press
QNH
hPa
Press
MSL
hPa
Rain since
9am
mm
Dir  Spd
km/h
Gust
km/h
Spd
kts
Gust
kts
29/11:30pm 27.2 30.9 22.6 76 3.1 NW 7 11 4 6 1011.4 1011.1 0.0
29/11:00pm 27.5 31.0 22.9 76 3.1 NNW 9 13 5 7 1011.2 1010.9 0.0
29/10:30pm 27.7 31.2 22.9 75 3.3 NNW 9 17 5 9 1011.2 1010.9 0.0
29/10:00pm 28.2 32.0 22.7 72 3.7 NW 7 11 4 6 1010.8 1010.5 0.0
29/09:30pm 29.1 31.8 22.1 66 4.7 NW 11 19 6 10 1010.5 1010.2 0.0
29/09:00pm 29.6 31.8 20.5 58 6.0 NNW 9 11 5 6 1009.7 1009.4 0.0
29/08:30pm 29.4 33.1 22.6 67 4.6 NNW 7 9 4 5 1009.3 1009.0 0.0
29/08:00pm 29.6 34.1 22.3 65 5.0 NW 2 7 1 4 1009.3 1009.0 0.0
29/07:30pm 30.1 33.3 21.2 59 6.0 NW 6 7 3 4 1009.2 1008.9 0.0
29/07:00pm 31.3 35.2 20.3 52 7.3 CALM 0 6 0 3 1008.9 1008.6 0.0
29/06:30pm 32.8 36.0 21.3 50 7.8 NW 6 7 3 4 1008.7 1008.4 0.0
29/06:00pm 32.8 35.5 20.3 47 8.3 NW 6 7 3 4 1008.4 1008.1 0.0
29/05:30pm 33.7 35.1 17.8 38 10.3 NW 7 9 4 5 1008.1 1007.8 0.0
29/05:00pm 35.8 37.6 18.4 35 11.4 SW 6 7 3 4 1008.2 1007.9 0.0
29/04:30pm 35.6 37.4 18.2 35 11.4 SE 6 13 3 7 1008.2 1007.9 0.0
29/04:00pm 35.4 37.3 17.6 35 11.5 NNE 4 9 2 5 1008.5 1008.2 0.0
29/03:30pm 35.0 36.7 18.1 36 11.0 ESE 6 9 3 5 1008.9 1008.6 0.0
29/03:00pm 35.5 38.0 19.0 37 10.9 SE 4 9 2 5 1009.2 1008.9 0.0
29/02:30pm 35.3 37.9 20.4 41 10.0 E 7 13 4 7 1009.7 1009.4 0.0
29/02:00pm 34.8 36.6 18.8 39 10.5 SE 7 19 4 10 1010.2 1009.9 0.0
29/01:30pm 34.6 35.6 17.8 37 10.9 SSE 9 17 5 9 1010.9 1010.6 0.0
29/01:00pm 33.7 35.1 17.8 38 10.3 NNW 7 13 4 7 1011.6 1011.3 0.0
29/12:30pm 33.3 35.5 19.7 44 9.0 E 7 13 4 7 1012.3 1012.0 0.0
29/12:00pm 33.2 35.4 20.4 47 8.6 SE 9 13 5 7 1012.9 1012.6 0.0
29/11:30am 32.8 36.4 22.0 53 7.4 SSE 6 9 3 5 1013.1 1012.8 0.0
29/11:00am 31.7 34.9 21.2 53 7.1 NNW 6 9 3 5 1013.6 1013.3 0.0
29/10:30am 30.8 34.0 22.4 61 5.7 WSW 9 15 5 8 1014.1 1013.8 0.0
29/10:00am 30.2 33.8 23.1 65 4.9 SSW 9 13 5 7 1014.4 1014.1 0.0
29/09:30am 29.3 33.3 21.3 62 5.4 S 2 7 1 4 1014.8 1014.5 0.0
29/09:00am 28.3 32.3 22.1 69 4.2 S 4 7 2 4 1014.7 1014.4 23.2
29/08:30am 27.7 33.0 23.1 76 3.1 CALM 0 0 0 0 1014.6 1014.3 23.2
29/08:00am 26.2 30.8 22.5 80 2.5 SE 2 7 1 4 1014.4 1014.1 23.2
29/07:30am 25.3 30.5 22.8 86 1.7 CALM 0 0 0 0 1014.0 1013.7 23.2
29/07:00am 23.8 28.9 22.6 93 0.8 CALM 0 0 0 0 1013.8 1013.5 23.2
29/06:30am 23.2 28.0 22.2 94 0.7 CALM 0 0 0 0 1013.5 1013.2 23.2
29/06:00am 23.4 28.3 22.4 94 0.7 CALM 0 0 0 0 1013.3 1013.0 23.2
29/05:30am 23.5 28.5 22.5 94 0.7 CALM 0 0 0 0 1013.0 1012.7 23.2
29/05:00am 23.6 28.7 22.6 94 0.7 CALM 0 0 0 0 1012.7 1012.4 23.2
29/04:30am 23.5 28.5 22.5 94 0.7 CALM 0 0 0 0 1012.3 1012.0 23.2
29/04:00am 23.5 28.4 22.3 93 0.8 CALM 0 0 0 0 1011.9 1011.6 23.2
29/03:30am 23.7 28.7 22.5 93 0.8 CALM 0 0 0 0 1011.7 1011.4 23.2
29/03:00am 23.8 28.9 22.6 93 0.8 CALM 0 0 0 0 1011.8 1011.5 23.2
29/02:30am 24.0 29.2 22.8 93 0.8 CALM 0 0 0 0 1012.1 1011.8 23.2
29/02:00am 24.1 28.1 22.7 92 0.9 NE 6 7 3 4 1012.3 1012.0 23.0
29/01:30am 24.1 28.0 22.9 93 0.8 ESE 7 9 4 5 1012.7 1012.4 23.0
29/01:00am 24.1 27.9 22.7 92 0.9 ENE 7 11 4 6 1012.9 1012.6 23.0
29/12:30am 24.1 29.1 22.5 91 1.1 CALM 0 0 0 0 1012.8 1012.5 23.0
29/12:00am 24.0 27.2 22.3 90 1.1 S 9 15 5 8 1013.1 1012.8 23.0
 
Date/Time
CST
Temp
°C
App
Temp
°C
Dew
Point
°C
Rel
Hum
%
Delta-T
°C
Wind Press
QNH
hPa
Press
MSL
hPa
Rain since
9am
mm
Dir  Spd
km/h
Gust
km/h
Spd
kts
Gust
kts
28/11:30pm 24.3 29.0 22.6 90 1.1 ENE 2 9 1 5 1013.1 1012.8 23.0
28/11:00pm 24.2 27.8 22.3 89 1.3 ENE 7 9 4 5 1013.0 1012.7 23.0
28/10:30pm 24.3 27.6 22.6 90 1.1 S 9 15 5 8 1013.3 1013.0 23.0
28/10:00pm 24.5 27.2 22.2 87 1.5 WSW 11 17 6 9 1012.3 1012.0 23.0
28/09:30pm 25.0 28.0 22.7 87 1.6 WNW 11 13 6 7 1012.5 1012.2 23.0
28/09:00pm 25.6 27.4 22.5 83 2.1 NNW 17 30 9 16 1011.7 1011.4 23.0
28/08:30pm 24.6 25.8 22.5 88 1.4 NNW 20 32 11 17 1011.8 1011.5 23.0
28/08:00pm 23.7 25.6 22.7 94 0.7 WNW 17 24 9 13 1012.3 1012.0 22.8
28/07:30pm 23.9 24.4 22.0 89 1.3 S 22 32 12 17 1013.0 1012.7 4.8
28/07:10pm 27.3 26.0 19.1 61 5.3 SW 24 41 13 22 1012.1 1011.8 0.2
28/07:00pm 30.1 32.0 20.6 56 6.3 NW 11 22 6 12 1011.5 1011.2 0.2
28/06:30pm 31.1 32.4 19.4 49 7.7 NW 11 20 6 11 1009.9 1009.6 0.2
28/06:00pm 32.2 34.4 19.1 45 8.6 NE 6 9 3 5 1008.9 1008.6 0.2
28/05:30pm 34.2 35.3 17.0 36 11.0 NNE 7 9 4 5 1008.4 1008.1 0.2
28/05:00pm 34.3 35.4 16.6 34 11.3 NNE 6 9 3 5 1008.2 1007.9 0.2
28/04:30pm 34.2 36.0 17.4 36 10.8 NE 4 9 2 5 1008.5 1008.2 0.2
28/04:00pm 31.7 34.7 20.9 52 7.2 NE 6 9 3 5 1009.0 1008.7 0.2
28/03:30pm 29.8 32.0 19.2 53 6.9 NNE 6 11 3 6 1009.1 1008.8 0.2
28/03:00pm 27.3 28.4 18.9 60 5.4 N 11 20 6 11 1009.9 1009.6 0.2
28/02:45pm 27.6 28.1 21.9 71 3.8 E 22 43 12 23 1010.5 1010.2 0.2
28/02:34pm 27.1 23.8 22.3 75 3.2 ESE 43 61 23 33 1010.4 1010.1 0.2
28/02:30pm 26.3 21.6 20.6 71 3.8 ESE 46 61 25 33 1010.2 1009.9 0.0
28/02:26pm 28.3 22.1 19.0 57 6.0 ESE 50 65 27 35 1010.6 1010.3 0.0
28/02:12pm 34.0 34.7 18.9 41 9.9 ENE 13 50 7 27 1010.6 1010.3 0.0
28/02:00pm 35.9 38.0 20.2 40 10.5 ESE 9 19 5 10 1010.2 1009.9 0.0
28/01:30pm 34.9 37.2 18.5 38 10.7 N 4 9 2 5 1010.9 1010.6 0.0
28/01:00pm 34.7 36.3 19.9 42 9.9 ESE 11 17 6 9 1011.7 1011.4 0.0
28/12:30pm 34.7 37.4 20.3 43 9.6 NE 6 13 3 7 1012.4 1012.1 0.0
28/12:00pm 34.2 34.8 19.4 41 9.8 E 15 24 8 13 1012.8 1012.5 0.0
28/11:30am 33.9 36.8 21.0 47 8.7 SSW 7 13 4 7 1013.3 1013.0 0.0
28/11:00am 32.7 35.4 20.2 47 8.3 NNE 6 15 3 8 1013.9 1013.6 0.0
28/10:30am 32.2 34.1 19.8 48 8.2 SSW 9 15 5 8 1014.2 1013.9 0.0
28/10:00am 31.5 34.5 20.8 53 7.2 SW 6 11 3 6 1014.5 1014.2 0.0
28/09:30am 30.5 33.4 21.0 57 6.3 SW 7 13 4 7 1014.7 1014.4 0.0
28/09:00am 29.0 32.8 21.7 64 4.9 WSW 4 9 2 5 1014.6 1014.3 0.2
28/08:30am 28.1 32.8 22.6 72 3.7 NE 2 6 1 3 1014.4 1014.1 0.2
28/08:00am 26.4 30.7 22.7 80 2.5 ENE 4 7 2 4 1013.9 1013.6 0.2
28/07:30am 25.3 30.8 23.4 89 1.3 CALM 0 0 0 0 1013.6 1013.3 0.2
28/07:00am 24.7 29.9 22.9 90 1.2 CALM 0 0 0 0 1013.1 1012.8 0.2
28/06:30am 24.0 29.1 22.6 92 0.9 CALM 0 0 0 0 1012.7 1012.4 0.2
28/06:00am 23.9 28.9 22.5 92 0.9 CALM 0 0 0 0 1012.3 1012.0 0.2
28/05:30am 23.8 28.6 22.2 91 1.1 CALM 0 0 0 0 1012.2 1011.9 0.2
28/05:00am 24.2 28.4 22.5 90 1.1 NNE 4 7 2 4 1011.9 1011.6 0.2
28/04:30am 24.6 29.5 22.3 87 1.5 CALM 0 0 0 0 1011.8 1011.5 0.2
28/04:00am 24.4 28.9 22.3 88 1.4 NNE 2 6 1 3 1011.5 1011.2 0.2
28/03:30am 24.4 28.0 22.3 88 1.4 NNE 7 9 4 5 1011.3 1011.0 0.2
28/03:00am 24.5 28.2 22.2 87 1.5 NNE 6 7 3 4 1011.4 1011.1 0.2
28/02:30am 24.5 28.2 22.6 89 1.3 NNE 7 9 4 5 1011.6 1011.3 0.2
28/02:00am 24.4 29.0 22.5 89 1.3 ENE 2 7 1 4 1011.7 1011.4 0.2
28/01:30am 24.4 29.2 22.1 87 1.5 CALM 0 0 0 0 1011.6 1011.3 0.2
28/01:00am 24.2 28.8 21.7 86 1.7 CALM 0 0 0 0 1012.1 1011.8 0.2
28/12:30am 24.3 28.4 21.6 85 1.8 WSW 2 6 1 3 1012.0 1011.7 0.2
28/12:00am 24.7 29.3 21.8 84 1.9 CALM 0 0 0 0 1012.1 1011.8 0.2
 
Date/Time
CST
Temp
°C
App
Temp
°C
Dew
Point
°C
Rel
Hum
%
Delta-T
°C
Wind Press
QNH
hPa
Press
MSL
hPa
Rain since
9am
mm
Dir  Spd
km/h
Gust
km/h
Spd
kts
Gust
kts
27/11:30pm 25.1 28.3 21.2 79 2.6 NE 6 7 3 4 1012.1 1011.8 0.2
27/11:00pm 24.9 28.3 21.0 79 2.6 ENE 4 7 2 4 1012.1 1011.8 0.2
27/10:30pm 25.5 30.1 21.8 80 2.5 CALM 0 0 0 0 1011.9 1011.6 0.2
27/10:00pm 26.1 29.1 20.9 73 3.4 WNW 6 9 3 5 1011.4 1011.1 0.2
27/09:30pm 26.7 29.5 20.5 69 4.1 N 6 11 3 6 1011.0 1010.7 0.2
27/09:00pm 26.9 29.2 19.8 65 4.6 NNE 7 13 4 7 1011.1 1010.8 0.2
27/08:30pm 27.0 29.4 20.1 66 4.5 NE 7 9 4 5 1010.8 1010.5 0.2
27/08:00pm 27.8 26.4 20.4 64 4.9 E 28 41 15 22 1010.5 1010.2 0.2
27/07:30pm 29.5 33.9 21.4 61 5.4 CALM 0 0 0 0 1009.6 1009.3 0.2
27/07:00pm 30.4 33.7 21.5 59 6.0 W 6 7 3 4 1008.9 1008.6 0.2
27/06:30pm 31.6 35.3 20.8 52 7.2 NW 2 7 1 4 1008.5 1008.2 0.2
27/06:00pm 32.7 35.4 20.6 49 8.1 WNW 7 9 4 5 1007.9 1007.6 0.2
27/05:30pm 33.2 35.4 20.4 47 8.6 SW 9 13 5 7 1007.6 1007.3 0.2
27/05:00pm 33.1 34.5 20.3 47 8.5 WSW 13 17 7 9 1007.7 1007.4 0.2
27/04:30pm 33.0 34.3 20.9 49 8.1 W 15 20 8 11 1007.8 1007.5 0.2
27/04:00pm 33.6 34.8 20.0 44 9.0 WSW 13 19 7 10 1008.0 1007.7 0.2
27/03:30pm 34.0 35.8 20.4 45 9.1 WSW 11 20 6 11 1008.3 1008.0 0.2
27/03:00pm 33.2 34.3 19.7 45 8.9 W 13 19 7 10 1008.8 1008.5 0.2
27/02:30pm 33.7 37.0 21.5 49 8.3 WNW 6 15 3 8 1009.2 1008.9 0.2
27/02:00pm 32.2 34.4 20.5 50 7.8 NNW 9 13 5 7 1009.8 1009.5 0.2
27/01:30pm 32.8 36.4 22.3 54 7.2 SSW 7 15 4 8 1010.3 1010.0 0.2
27/01:00pm 31.7 35.2 21.8 55 6.7 WNW 6 13 3 7 1010.7 1010.4 0.2
27/12:30pm 31.0 34.0 20.9 55 6.8 SSE 6 11 3 6 1011.2 1010.9 0.2
27/12:00pm 30.7 33.7 20.9 56 6.6 SSW 6 9 3 5 1011.9 1011.6 0.2
27/11:30am 30.9 34.9 22.8 62 5.6 NNE 6 11 3 6 1012.5 1012.2 0.2
27/11:00am 29.7 32.8 21.1 60 5.7 S 6 11 3 6 1013.1 1012.8 0.2
27/10:30am 29.0 31.9 21.7 64 4.9 S 9 17 5 9 1013.7 1013.4 0.0
27/10:00am 29.0 32.6 23.0 70 4.1 S 9 15 5 8 1013.8 1013.5 0.0
27/09:30am 27.6 29.3 20.9 67 4.4 SSE 13 15 7 8 1013.6 1013.3 0.0
27/09:00am 26.8 28.1 20.9 70 3.9 SE 15 20 8 11 1013.1 1012.8 53.0
27/08:30am 26.9 28.1 21.4 72 3.7 SE 17 22 9 12 1012.7 1012.4 53.0
27/08:00am 26.1 27.7 21.5 76 3.1 SE 15 20 8 11 1012.9 1012.6 53.0
27/07:30am 25.6 28.6 23.3 87 1.6 SE 13 17 7 9 1012.3 1012.0 53.0
27/07:00am 24.9 28.5 23.0 89 1.3 ESE 9 11 5 6 1011.7 1011.4 53.0
27/06:30am 24.5 28.0 22.8 90 1.1 ESE 9 11 5 6 1011.2 1010.9 53.0

Other formats

Comma delimited format used in spreadsheet applications
http://www.bom.gov.au/fwo/IDD60801/IDD60801.94128.axf

JavaScript Object Notation format (JSON) in row-major order
http://www.bom.gov.au/fwo/IDD60801/IDD60801.94128.json

Data quality

Most of these data are generated automatically and are frequently updated. Quality checks on data are not normally performed. It is possible for incorrect values to appear. Refer to information at About Latest Weather Observations and please check the disclaimer before using these data.